sensor_id;sensor_type;location;lat;lon;timestamp;temperature;humidity
18384;DHT22;9318;48.644;9.456;2024-03-23T00:54:15;8.10;99.90
18384;DHT22;9318;48.644;9.456;2024-03-23T00:56:42;8.00;99.90
18384;DHT22;9318;48.644;9.456;2024-03-23T00:59:08;8.00;99.90
18384;DHT22;9318;48.644;9.456;2024-03-23T01:01:35;7.90;99.90
18384;DHT22;9318;48.644;9.456;2024-03-23T01:04:01;7.90;99.90
18384;DHT22;9318;48.644;9.456;2024-03-23T01:06:29;7.80;99.90
18384;DHT22;9318;48.644;9.456;2024-03-23T01:08:54;7.80;99.90
18384;DHT22;9318;48.644;9.456;2024-03-23T01:11:22;7.80;99.90
18384;DHT22;9318;48.644;9.456;2024-03-23T01:13:48;7.70;99.90
18384;DHT22;9318;48.644;9.456;2024-03-23T01:16:15;7.70;99.90
18384;DHT22;9318;48.644;9.456;2024-03-23T01:18:41;7.60;99.90
18384;DHT22;9318;48.644;9.456;2024-03-23T01:21:07;7.60;99.90
18384;DHT22;9318;48.644;9.456;2024-03-23T01:23:33;7.60;99.90
18384;DHT22;9318;48.644;9.456;2024-03-23T01:26:00;7.60;99.90
18384;DHT22;9318;48.644;9.456;2024-03-23T01:28:27;7.60;99.90
18384;DHT22;9318;48.644;9.456;2024-03-23T01:30:54;7.70;99.90
18384;DHT22;9318;48.644;9.456;2024-03-23T01:33:19;7.80;99.90
18384;DHT22;9318;48.644;9.456;2024-03-23T01:35:46;7.70;99.90
18384;DHT22;9318;48.644;9.456;2024-03-23T01:38:12;7.80;99.90
18384;DHT22;9318;48.644;9.456;2024-03-23T01:40:39;7.80;99.90
18384;DHT22;9318;48.644;9.456;2024-03-23T01:43:05;7.70;99.90
18384;DHT22;9318;48.644;9.456;2024-03-23T01:45:34;7.70;99.90
18384;DHT22;9318;48.644;9.456;2024-03-23T01:48:00;7.70;99.90
18384;DHT22;9318;48.644;9.456;2024-03-23T01:50:28;7.70;99.90
18384;DHT22;9318;48.644;9.456;2024-03-23T01:52:56;7.70;99.90
18384;DHT22;9318;48.644;9.456;2024-03-23T01:55:24;7.70;99.90
18384;DHT22;9318;48.644;9.456;2024-03-23T01:57:50;7.80;99.90
18384;DHT22;9318;48.644;9.456;2024-03-23T02:00:17;7.70;99.90
18384;DHT22;9318;48.644;9.456;2024-03-23T02:02:45;7.80;99.90
18384;DHT22;9318;48.644;9.456;2024-03-23T02:05:12;7.80;99.90
18384;DHT22;9318;48.644;9.456;2024-03-23T02:07:39;7.80;99.90
18384;DHT22;9318;48.644;9.456;2024-03-23T02:10:06;7.70;99.90
18384;DHT22;9318;48.644;9.456;2024-03-23T02:12:32;7.70;99.90
18384;DHT22;9318;48.644;9.456;2024-03-23T02:14:59;7.70;99.90
18384;DHT22;9318;48.644;9.456;2024-03-23T02:17:25;7.60;99.90
18384;DHT22;9318;48.644;9.456;2024-03-23T02:19:53;7.60;99.90
18384;DHT22;9318;48.644;9.456;2024-03-23T02:22:19;7.60;99.90
18384;DHT22;9318;48.644;9.456;2024-03-23T02:24:47;7.60;99.90
18384;DHT22;9318;48.644;9.456;2024-03-23T02:27:13;7.60;99.90
18384;DHT22;9318;48.644;9.456;2024-03-23T02:29:40;7.60;99.90
18384;DHT22;9318;48.644;9.456;2024-03-23T02:32:06;7.60;99.90
18384;DHT22;9318;48.644;9.456;2024-03-23T02:34:34;7.60;99.90
18384;DHT22;9318;48.644;9.456;2024-03-23T02:37:00;7.70;99.90
18384;DHT22;9318;48.644;9.456;2024-03-23T02:39:27;7.70;99.90
18384;DHT22;9318;48.644;9.456;2024-03-23T02:41:54;7.60;99.90
18384;DHT22;9318;48.644;9.456;2024-03-23T02:44:20;7.60;99.90
18384;DHT22;9318;48.644;9.456;2024-03-23T02:46:47;7.60;99.90
18384;DHT22;9318;48.644;9.456;2024-03-23T02:49:14;7.60;99.90
18384;DHT22;9318;48.644;9.456;2024-03-23T02:51:40;7.60;99.90
18384;DHT22;9318;48.644;9.456;2024-03-23T02:54:06;7.60;99.90
18384;DHT22;9318;48.644;9.456;2024-03-23T02:56:32;7.70;99.90
18384;DHT22;9318;48.644;9.456;2024-03-23T02:59:01;7.90;99.90
18384;DHT22;9318;48.644;9.456;2024-03-23T03:01:26;8.20;99.90
18384;DHT22;9318;48.644;9.456;2024-03-23T03:03:53;8.30;99.90
18384;DHT22;9318;48.644;9.456;2024-03-23T03:06:31;8.30;99.90
18384;DHT22;9318;48.644;9.456;2024-03-23T03:08:58;8.40;99.90
18384;DHT22;9318;48.644;9.456;2024-03-23T03:11:23;8.40;99.90
18384;DHT22;9318;48.644;9.456;2024-03-23T03:13:50;8.40;99.90
18384;DHT22;9318;48.644;9.456;2024-03-23T03:16:17;8.30;99.90
18384;DHT22;9318;48.644;9.456;2024-03-23T03:18:44;8.20;99.90
18384;DHT22;9318;48.644;9.456;2024-03-23T03:21:12;8.20;99.90
18384;DHT22;9318;48.644;9.456;2024-03-23T03:23:39;8.20;99.90
18384;DHT22;9318;48.644;9.456;2024-03-23T03:26:05;8.30;99.90
18384;DHT22;9318;48.644;9.456;2024-03-23T03:28:33;8.40;99.90
18384;DHT22;9318;48.644;9.456;2024-03-23T03:30:59;8.50;99.90
18384;DHT22;9318;48.644;9.456;2024-03-23T03:33:28;8.60;99.90
18384;DHT22;9318;48.644;9.456;2024-03-23T03:35:53;8.80;99.90
18384;DHT22;9318;48.644;9.456;2024-03-23T03:38:21;8.90;99.90
18384;DHT22;9318;48.644;9.456;2024-03-23T03:40:47;9.00;99.90
18384;DHT22;9318;48.644;9.456;2024-03-23T03:43:14;9.10;99.90
18384;DHT22;9318;48.644;9.456;2024-03-23T03:45:40;9.50;99.90
18384;DHT22;9318;48.644;9.456;2024-03-23T03:48:07;9.60;99.90
18384;DHT22;9318;48.644;9.456;2024-03-23T03:50:34;9.70;99.90
18384;DHT22;9318;48.644;9.456;2024-03-23T03:53:01;10.00;99.90
18384;DHT22;9318;48.644;9.456;2024-03-23T03:55:27;10.20;99.90
18384;DHT22;9318;48.644;9.456;2024-03-23T03:57:54;10.50;99.90
18384;DHT22;9318;48.644;9.456;2024-03-23T04:00:20;10.60;99.90
18384;DHT22;9318;48.644;9.456;2024-03-23T04:02:46;10.80;99.90
18384;DHT22;9318;48.644;9.456;2024-03-23T04:05:12;10.80;99.90
18384;DHT22;9318;48.644;9.456;2024-03-23T04:07:41;10.90;99.90
18384;DHT22;9318;48.644;9.456;2024-03-23T04:10:07;11.00;99.90
18384;DHT22;9318;48.644;9.456;2024-03-23T04:12:35;11.10;99.90
18384;DHT22;9318;48.644;9.456;2024-03-23T04:15:00;11.10;99.90
18384;DHT22;9318;48.644;9.456;2024-03-23T04:17:29;11.10;99.90
18384;DHT22;9318;48.644;9.456;2024-03-23T04:19:57;11.20;99.90
18384;DHT22;9318;48.644;9.456;2024-03-23T04:22:24;11.20;99.90
18384;DHT22;9318;48.644;9.456;2024-03-23T04:24:53;11.20;99.90
18384;DHT22;9318;48.644;9.456;2024-03-23T04:27:20;11.20;99.90
18384;DHT22;9318;48.644;9.456;2024-03-23T04:29:47;11.10;99.90
18384;DHT22;9318;48.644;9.456;2024-03-23T04:32:14;11.10;99.90
18384;DHT22;9318;48.644;9.456;2024-03-23T04:34:40;11.10;99.90
18384;DHT22;9318;48.644;9.456;2024-03-23T04:37:07;11.10;99.90
18384;DHT22;9318;48.644;9.456;2024-03-23T04:39:34;11.10;99.90
18384;DHT22;9318;48.644;9.456;2024-03-23T04:42:02;11.20;99.90
18384;DHT22;9318;48.644;9.456;2024-03-23T04:44:29;11.20;99.90
18384;DHT22;9318;48.644;9.456;2024-03-23T04:46:56;11.30;99.90
18384;DHT22;9318;48.644;9.456;2024-03-23T04:49:23;11.30;99.90
18384;DHT22;9318;48.644;9.456;2024-03-23T04:51:48;11.40;99.90
18384;DHT22;9318;48.644;9.456;2024-03-23T04:54:15;11.40;99.90
18384;DHT22;9318;48.644;9.456;2024-03-23T04:56:42;11.40;99.90
18384;DHT22;9318;48.644;9.456;2024-03-23T04:59:09;11.40;99.90
18384;DHT22;9318;48.644;9.456;2024-03-23T05:01:36;11.30;99.90
18384;DHT22;9318;48.644;9.456;2024-03-23T05:04:04;11.20;99.90
18384;DHT22;9318;48.644;9.456;2024-03-23T05:06:31;11.10;99.90
18384;DHT22;9318;48.644;9.456;2024-03-23T05:08:57;11.00;99.90
18384;DHT22;9318;48.644;9.456;2024-03-23T05:11:24;10.90;99.90
18384;DHT22;9318;48.644;9.456;2024-03-23T05:13:50;10.90;99.90
18384;DHT22;9318;48.644;9.456;2024-03-23T05:16:18;10.80;99.90
18384;DHT22;9318;48.644;9.456;2024-03-23T05:18:43;10.80;99.90
18384;DHT22;9318;48.644;9.456;2024-03-23T05:21:10;10.70;99.90
18384;DHT22;9318;48.644;9.456;2024-03-23T05:23:37;10.70;99.90
18384;DHT22;9318;48.644;9.456;2024-03-23T05:26:03;10.70;99.90
18384;DHT22;9318;48.644;9.456;2024-03-23T05:28:30;10.60;99.90
18384;DHT22;9318;48.644;9.456;2024-03-23T05:30:56;10.60;99.90
18384;DHT22;9318;48.644;9.456;2024-03-23T05:33:25;10.50;99.90
18384;DHT22;9318;48.644;9.456;2024-03-23T05:35:56;10.50;99.90
18384;DHT22;9318;48.644;9.456;2024-03-23T05:38:23;10.40;99.90
18384;DHT22;9318;48.644;9.456;2024-03-23T05:40:53;10.30;99.90
18384;DHT22;9318;48.644;9.456;2024-03-23T05:43:20;10.30;99.90
18384;DHT22;9318;48.644;9.456;2024-03-23T05:45:47;10.30;99.90
18384;DHT22;9318;48.644;9.456;2024-03-23T05:48:19;10.30;99.90
18384;DHT22;9318;48.644;9.456;2024-03-23T05:50:46;10.20;99.90
18384;DHT22;9318;48.644;9.456;2024-03-23T05:53:14;10.20;99.90
18384;DHT22;9318;48.644;9.456;2024-03-23T05:55:40;10.20;99.90
18384;DHT22;9318;48.644;9.456;2024-03-23T05:58:06;10.20;99.90
18384;DHT22;9318;48.644;9.456;2024-03-23T06:00:32;10.20;99.90
18384;DHT22;9318;48.644;9.456;2024-03-23T06:02:59;10.10;99.90
18384;DHT22;9318;48.644;9.456;2024-03-23T06:05:25;10.10;99.90
18384;DHT22;9318;48.644;9.456;2024-03-23T06:07:53;10.10;99.90
18384;DHT22;9318;48.644;9.456;2024-03-23T06:10:19;10.10;99.90
18384;DHT22;9318;48.644;9.456;2024-03-23T06:12:46;10.00;99.90
18384;DHT22;9318;48.644;9.456;2024-03-23T06:15:12;9.90;99.90
18384;DHT22;9318;48.644;9.456;2024-03-23T06:17:39;9.90;99.90
18384;DHT22;9318;48.644;9.456;2024-03-23T06:20:05;9.90;99.90
18384;DHT22;9318;48.644;9.456;2024-03-23T06:22:32;9.90;99.90
18384;DHT22;9318;48.644;9.456;2024-03-23T06:25:00;9.90;99.90
18384;DHT22;9318;48.644;9.456;2024-03-23T06:27:27;9.80;99.90
18384;DHT22;9318;48.644;9.456;2024-03-23T06:29:53;9.80;99.90
18384;DHT22;9318;48.644;9.456;2024-03-23T06:32:20;9.80;99.90
18384;DHT22;9318;48.644;9.456;2024-03-23T06:34:46;9.70;99.90
18384;DHT22;9318;48.644;9.456;2024-03-23T06:37:13;9.70;99.90
18384;DHT22;9318;48.644;9.456;2024-03-23T06:39:39;9.70;99.90
18384;DHT22;9318;48.644;9.456;2024-03-23T06:42:07;9.60;99.90
18384;DHT22;9318;48.644;9.456;2024-03-23T06:44:33;9.60;99.90
18384;DHT22;9318;48.644;9.456;2024-03-23T06:47:00;9.60;99.90
18384;DHT22;9318;48.644;9.456;2024-03-23T06:49:26;9.60;99.90
18384;DHT22;9318;48.644;9.456;2024-03-23T06:51:53;9.60;99.90
18384;DHT22;9318;48.644;9.456;2024-03-23T06:54:19;9.60;99.90
18384;DHT22;9318;48.644;9.456;2024-03-23T06:56:46;9.60;99.90
18384;DHT22;9318;48.644;9.456;2024-03-23T06:59:13;9.50;99.90
18384;DHT22;9318;48.644;9.456;2024-03-23T07:01:40;9.50;99.90
18384;DHT22;9318;48.644;9.456;2024-03-23T07:04:06;9.60;99.90
18384;DHT22;9318;48.644;9.456;2024-03-23T07:06:33;9.60;99.90
18384;DHT22;9318;48.644;9.456;2024-03-23T07:08:59;9.50;99.90
18384;DHT22;9318;48.644;9.456;2024-03-23T07:11:25;9.50;99.90
18384;DHT22;9318;48.644;9.456;2024-03-23T07:13:52;9.50;99.90
18384;DHT22;9318;48.644;9.456;2024-03-23T07:16:21;9.50;99.90
18384;DHT22;9318;48.644;9.456;2024-03-23T07:18:47;9.60;99.90
18384;DHT22;9318;48.644;9.456;2024-03-23T07:21:15;9.70;99.90
18384;DHT22;9318;48.644;9.456;2024-03-23T07:23:42;9.80;99.90
18384;DHT22;9318;48.644;9.456;2024-03-23T07:26:10;9.80;99.90
18384;DHT22;9318;48.644;9.456;2024-03-23T07:28:36;9.90;99.90
18384;DHT22;9318;48.644;9.456;2024-03-23T07:31:04;9.90;99.90
18384;DHT22;9318;48.644;9.456;2024-03-23T07:33:32;9.90;99.90
18384;DHT22;9318;48.644;9.456;2024-03-23T07:35:59;9.80;99.90
18384;DHT22;9318;48.644;9.456;2024-03-23T07:38:26;9.80;99.90
18384;DHT22;9318;48.644;9.456;2024-03-23T07:41:03;9.80;99.90
18384;DHT22;9318;48.644;9.456;2024-03-23T07:43:29;9.80;99.90
18384;DHT22;9318;48.644;9.456;2024-03-23T07:45:56;9.80;99.90
18384;DHT22;9318;48.644;9.456;2024-03-23T07:48:22;9.90;99.90
18384;DHT22;9318;48.644;9.456;2024-03-23T07:50:58;10.00;99.90
18384;DHT22;9318;48.644;9.456;2024-03-23T07:53:24;10.10;99.90
18384;DHT22;9318;48.644;9.456;2024-03-23T07:55:54;10.10;99.90
18384;DHT22;9318;48.644;9.456;2024-03-23T07:58:20;10.00;99.90
18384;DHT22;9318;48.644;9.456;2024-03-23T08:00:47;9.90;99.90
18384;DHT22;9318;48.644;9.456;2024-03-23T08:03:12;9.80;99.90
18384;DHT22;9318;48.644;9.456;2024-03-23T08:05:39;9.80;99.90
18384;DHT22;9318;48.644;9.456;2024-03-23T08:08:07;9.70;99.90
18384;DHT22;9318;48.644;9.456;2024-03-23T08:10:34;9.70;99.90
18384;DHT22;9318;48.644;9.456;2024-03-23T08:13:00;9.60;99.90
18384;DHT22;9318;48.644;9.456;2024-03-23T08:15:27;9.40;99.90
18384;DHT22;9318;48.644;9.456;2024-03-23T08:17:52;9.40;99.90
18384;DHT22;9318;48.644;9.456;2024-03-23T08:20:19;9.30;99.90
18384;DHT22;9318;48.644;9.456;2024-03-23T08:22:45;9.30;99.90
18384;DHT22;9318;48.644;9.456;2024-03-23T08:25:13;9.20;99.90
18384;DHT22;9318;48.644;9.456;2024-03-23T08:27:39;9.30;99.90
18384;DHT22;9318;48.644;9.456;2024-03-23T08:30:07;9.30;99.90
18384;DHT22;9318;48.644;9.456;2024-03-23T08:32:34;10.20;99.90
18384;DHT22;9318;48.644;9.456;2024-03-23T08:35:01;10.90;99.90
18384;DHT22;9318;48.644;9.456;2024-03-23T08:37:26;11.20;99.90
18384;DHT22;9318;48.644;9.456;2024-03-23T08:39:53;10.80;99.90
18384;DHT22;9318;48.644;9.456;2024-03-23T08:42:20;10.40;99.90
18384;DHT22;9318;48.644;9.456;2024-03-23T08:44:47;10.10;99.90
18384;DHT22;9318;48.644;9.456;2024-03-23T08:47:15;10.00;99.90
18384;DHT22;9318;48.644;9.456;2024-03-23T08:49:41;9.90;99.90
18384;DHT22;9318;48.644;9.456;2024-03-23T08:52:07;9.80;99.90
18384;DHT22;9318;48.644;9.456;2024-03-23T08:54:34;9.70;99.90
18384;DHT22;9318;48.644;9.456;2024-03-23T08:57:00;10.20;99.90
18384;DHT22;9318;48.644;9.456;2024-03-23T08:59:28;11.70;99.90
18384;DHT22;9318;48.644;9.456;2024-03-23T09:01:54;13.50;99.90
18384;DHT22;9318;48.644;9.456;2024-03-23T09:04:21;14.50;99.90
18384;DHT22;9318;48.644;9.456;2024-03-23T09:06:47;14.90;99.90
18384;DHT22;9318;48.644;9.456;2024-03-23T09:09:13;14.10;99.90
18384;DHT22;9318;48.644;9.456;2024-03-23T09:11:39;13.00;99.90
18384;DHT22;9318;48.644;9.456;2024-03-23T09:14:06;12.20;99.90
18384;DHT22;9318;48.644;9.456;2024-03-23T09:16:33;11.50;99.90
18384;DHT22;9318;48.644;9.456;2024-03-23T09:19:00;10.90;99.90
18384;DHT22;9318;48.644;9.456;2024-03-23T09:21:26;10.50;99.90
18384;DHT22;9318;48.644;9.456;2024-03-23T09:23:53;10.30;99.90
18384;DHT22;9318;48.644;9.456;2024-03-23T09:26:18;10.00;99.90
18384;DHT22;9318;48.644;9.456;2024-03-23T09:28:48;9.80;99.90
18384;DHT22;9318;48.644;9.456;2024-03-23T09:31:14;9.60;99.90
18384;DHT22;9318;48.644;9.456;2024-03-23T09:33:42;9.50;99.90
18384;DHT22;9318;48.644;9.456;2024-03-23T09:36:08;9.40;99.90
18384;DHT22;9318;48.644;9.456;2024-03-23T09:38:36;9.80;99.90
18384;DHT22;9318;48.644;9.456;2024-03-23T09:41:07;10.40;99.90
18384;DHT22;9318;48.644;9.456;2024-03-23T09:43:34;11.80;99.90
18384;DHT22;9318;48.644;9.456;2024-03-23T09:46:01;12.70;99.90
18384;DHT22;9318;48.644;9.456;2024-03-23T09:48:28;13.40;99.90
18384;DHT22;9318;48.644;9.456;2024-03-23T09:50:56;13.60;99.90
18384;DHT22;9318;48.644;9.456;2024-03-23T09:53:23;13.90;99.90
18384;DHT22;9318;48.644;9.456;2024-03-23T09:55:49;13.80;99.90
18384;DHT22;9318;48.644;9.456;2024-03-23T09:58:17;13.50;99.90
18384;DHT22;9318;48.644;9.456;2024-03-23T10:00:43;13.00;99.90
18384;DHT22;9318;48.644;9.456;2024-03-23T10:03:10;12.70;99.90
18384;DHT22;9318;48.644;9.456;2024-03-23T10:05:37;12.60;99.90
18384;DHT22;9318;48.644;9.456;2024-03-23T10:08:17;12.50;99.90
18384;DHT22;9318;48.644;9.456;2024-03-23T10:10:44;12.10;99.90
18384;DHT22;9318;48.644;9.456;2024-03-23T10:13:14;11.90;99.90
18384;DHT22;9318;48.644;9.456;2024-03-23T10:15:55;11.40;99.90
18384;DHT22;9318;48.644;9.456;2024-03-23T10:18:22;11.10;99.90
18384;DHT22;9318;48.644;9.456;2024-03-23T10:20:51;10.80;99.90
18384;DHT22;9318;48.644;9.456;2024-03-23T10:23:19;10.60;99.90
18384;DHT22;9318;48.644;9.456;2024-03-23T10:25:45;10.50;99.90
18384;DHT22;9318;48.644;9.456;2024-03-23T10:28:12;10.40;99.90
18384;DHT22;9318;48.644;9.456;2024-03-23T10:30:38;10.20;99.90
18384;DHT22;9318;48.644;9.456;2024-03-23T10:33:08;10.20;99.90
18384;DHT22;9318;48.644;9.456;2024-03-23T10:35:34;10.10;99.90
18384;DHT22;9318;48.644;9.456;2024-03-23T10:38:02;10.30;99.90
18384;DHT22;9318;48.644;9.456;2024-03-23T10:40:31;10.50;99.90
18384;DHT22;9318;48.644;9.456;2024-03-23T10:42:58;10.70;99.90
18384;DHT22;9318;48.644;9.456;2024-03-23T10:45:24;11.00;99.90
18384;DHT22;9318;48.644;9.456;2024-03-23T10:47:51;11.20;99.90
18384;DHT22;9318;48.644;9.456;2024-03-23T10:50:17;11.30;99.90
18384;DHT22;9318;48.644;9.456;2024-03-23T10:52:47;11.30;99.90
18384;DHT22;9318;48.644;9.456;2024-03-23T10:55:14;11.20;99.90
18384;DHT22;9318;48.644;9.456;2024-03-23T10:57:48;11.00;99.90
18384;DHT22;9318;48.644;9.456;2024-03-23T11:00:16;10.80;99.90
18384;DHT22;9318;48.644;9.456;2024-03-23T11:02:42;10.70;99.90
18384;DHT22;9318;48.644;9.456;2024-03-23T11:05:30;10.50;99.90
18384;DHT22;9318;48.644;9.456;2024-03-23T11:07:57;10.30;99.90
18384;DHT22;9318;48.644;9.456;2024-03-23T11:10:27;10.00;99.90
18384;DHT22;9318;48.644;9.456;2024-03-23T11:12:57;9.60;99.90
18384;DHT22;9318;48.644;9.456;2024-03-23T11:15:23;8.90;99.90
18384;DHT22;9318;48.644;9.456;2024-03-23T11:18:06;8.30;99.90
18384;DHT22;9318;48.644;9.456;2024-03-23T11:20:33;7.90;99.90
18384;DHT22;9318;48.644;9.456;2024-03-23T11:23:00;7.70;99.90
18384;DHT22;9318;48.644;9.456;2024-03-23T11:25:27;7.60;99.90
18384;DHT22;9318;48.644;9.456;2024-03-23T11:27:57;7.60;99.90
18384;DHT22;9318;48.644;9.456;2024-03-23T11:30:24;7.50;99.90
18384;DHT22;9318;48.644;9.456;2024-03-23T11:32:52;7.40;99.90
18384;DHT22;9318;48.644;9.456;2024-03-23T11:35:26;7.30;99.90
18384;DHT22;9318;48.644;9.456;2024-03-23T11:38:06;7.40;99.90
18384;DHT22;9318;48.644;9.456;2024-03-23T11:40:32;7.60;99.90
18384;DHT22;9318;48.644;9.456;2024-03-23T11:43:02;7.80;99.90
18384;DHT22;9318;48.644;9.456;2024-03-23T11:45:28;8.00;99.90
18384;DHT22;9318;48.644;9.456;2024-03-23T11:48:06;8.10;99.90
18384;DHT22;9318;48.644;9.456;2024-03-23T11:50:32;8.20;99.90
18384;DHT22;9318;48.644;9.456;2024-03-23T11:53:16;8.50;99.90
18384;DHT22;9318;48.644;9.456;2024-03-23T11:55:47;8.60;99.90
18384;DHT22;9318;48.644;9.456;2024-03-23T11:58:16;8.80;99.90
18384;DHT22;9318;48.644;9.456;2024-03-23T12:00:43;9.00;99.90
18384;DHT22;9318;48.644;9.456;2024-03-23T12:03:14;9.10;99.90
18384;DHT22;9318;48.644;9.456;2024-03-23T12:05:48;9.20;99.90
18384;DHT22;9318;48.644;9.456;2024-03-23T12:08:18;9.40;99.90
18384;DHT22;9318;48.644;9.456;2024-03-23T12:10:47;9.50;99.90
18384;DHT22;9318;48.644;9.456;2024-03-23T12:13:16;9.70;99.90
18384;DHT22;9318;48.644;9.456;2024-03-23T12:15:44;9.70;99.90
18384;DHT22;9318;48.644;9.456;2024-03-23T12:18:10;9.80;99.90
18384;DHT22;9318;48.644;9.456;2024-03-23T12:20:38;9.70;99.90
18384;DHT22;9318;48.644;9.456;2024-03-23T12:23:08;9.60;99.90
18384;DHT22;9318;48.644;9.456;2024-03-23T12:25:35;9.40;99.90
18384;DHT22;9318;48.644;9.456;2024-03-23T12:28:01;9.40;99.90
18384;DHT22;9318;48.644;9.456;2024-03-23T12:30:29;9.20;99.90
18384;DHT22;9318;48.644;9.456;2024-03-23T12:32:55;9.20;99.90
18384;DHT22;9318;48.644;9.456;2024-03-23T12:35:22;9.20;99.90
18384;DHT22;9318;48.644;9.456;2024-03-23T12:37:48;9.10;99.90
18384;DHT22;9318;48.644;9.456;2024-03-23T12:40:14;8.90;99.90
18384;DHT22;9318;48.644;9.456;2024-03-23T12:42:40;8.90;99.90
18384;DHT22;9318;48.644;9.456;2024-03-23T12:45:08;8.90;99.90
18384;DHT22;9318;48.644;9.456;2024-03-23T12:47:35;8.80;99.90
18384;DHT22;9318;48.644;9.456;2024-03-23T12:50:02;8.80;99.90
18384;DHT22;9318;48.644;9.456;2024-03-23T12:52:28;8.80;99.90
18384;DHT22;9318;48.644;9.456;2024-03-23T12:54:55;8.80;99.90
18384;DHT22;9318;48.644;9.456;2024-03-23T12:57:22;8.80;99.90
18384;DHT22;9318;48.644;9.456;2024-03-23T12:59:50;8.80;99.90
18384;DHT22;9318;48.644;9.456;2024-03-23T13:02:17;8.80;99.90
18384;DHT22;9318;48.644;9.456;2024-03-23T13:04:49;8.80;99.90
18384;DHT22;9318;48.644;9.456;2024-03-23T13:07:15;8.80;99.90
18384;DHT22;9318;48.644;9.456;2024-03-23T13:09:42;8.80;99.90
18384;DHT22;9318;48.644;9.456;2024-03-23T13:12:08;8.80;99.90
18384;DHT22;9318;48.644;9.456;2024-03-23T13:14:35;8.80;99.90
18384;DHT22;9318;48.644;9.456;2024-03-23T13:17:01;8.90;99.90
18384;DHT22;9318;48.644;9.456;2024-03-23T13:19:29;9.10;99.90
18384;DHT22;9318;48.644;9.456;2024-03-23T13:21:58;9.20;99.90
18384;DHT22;9318;48.644;9.456;2024-03-23T13:24:25;9.40;99.90
18384;DHT22;9318;48.644;9.456;2024-03-23T13:26:51;9.70;99.90
18384;DHT22;9318;48.644;9.456;2024-03-23T13:29:18;10.00;99.90
18384;DHT22;9318;48.644;9.456;2024-03-23T13:31:44;10.40;99.90
18384;DHT22;9318;48.644;9.456;2024-03-23T13:34:11;10.70;99.90
18384;DHT22;9318;48.644;9.456;2024-03-23T13:36:38;11.00;99.90
18384;DHT22;9318;48.644;9.456;2024-03-23T13:39:06;11.10;99.90
18384;DHT22;9318;48.644;9.456;2024-03-23T13:41:37;11.10;99.90
18384;DHT22;9318;48.644;9.456;2024-03-23T13:44:04;11.00;99.90
18384;DHT22;9318;48.644;9.456;2024-03-23T13:46:30;10.80;99.90
18384;DHT22;9318;48.644;9.456;2024-03-23T13:48:57;10.70;99.90
18384;DHT22;9318;48.644;9.456;2024-03-23T13:51:23;10.70;99.90
18384;DHT22;9318;48.644;9.456;2024-03-23T13:53:52;10.80;99.90
18384;DHT22;9318;48.644;9.456;2024-03-23T13:56:19;10.80;99.90
18384;DHT22;9318;48.644;9.456;2024-03-23T13:58:46;10.80;99.90
18384;DHT22;9318;48.644;9.456;2024-03-23T14:01:13;11.00;99.90
18384;DHT22;9318;48.644;9.456;2024-03-23T14:03:40;11.20;99.90
18384;DHT22;9318;48.644;9.456;2024-03-23T14:06:06;11.40;99.90
18384;DHT22;9318;48.644;9.456;2024-03-23T14:08:34;11.80;99.90
18384;DHT22;9318;48.644;9.456;2024-03-23T14:11:02;12.00;99.90
18384;DHT22;9318;48.644;9.456;2024-03-23T14:13:30;12.00;99.90
18384;DHT22;9318;48.644;9.456;2024-03-23T14:15:57;11.60;99.90
18384;DHT22;9318;48.644;9.456;2024-03-23T14:18:24;10.90;99.90
18384;DHT22;9318;48.644;9.456;2024-03-23T14:20:51;10.40;99.90
18384;DHT22;9318;48.644;9.456;2024-03-23T14:23:18;9.90;99.90
18384;DHT22;9318;48.644;9.456;2024-03-23T14:25:44;9.50;99.90
18384;DHT22;9318;48.644;9.456;2024-03-23T14:28:11;9.10;99.90
18384;DHT22;9318;48.644;9.456;2024-03-23T14:30:41;8.70;99.90
18384;DHT22;9318;48.644;9.456;2024-03-23T14:33:08;8.40;99.90
18384;DHT22;9318;48.644;9.456;2024-03-23T14:35:34;8.10;99.90
18384;DHT22;9318;48.644;9.456;2024-03-23T14:38:01;7.80;99.90
18384;DHT22;9318;48.644;9.456;2024-03-23T14:40:27;7.50;99.90
18384;DHT22;9318;48.644;9.456;2024-03-23T14:42:54;7.10;99.90
18384;DHT22;9318;48.644;9.456;2024-03-23T14:45:20;6.80;99.90
18384;DHT22;9318;48.644;9.456;2024-03-23T14:47:49;6.70;99.90
18384;DHT22;9318;48.644;9.456;2024-03-23T14:50:14;6.60;99.90
18384;DHT22;9318;48.644;9.456;2024-03-23T14:52:43;6.80;99.90
18384;DHT22;9318;48.644;9.456;2024-03-23T14:55:09;7.00;99.90
18384;DHT22;9318;48.644;9.456;2024-03-23T14:57:36;7.30;99.90
18384;DHT22;9318;48.644;9.456;2024-03-23T15:00:03;7.60;99.90
18384;DHT22;9318;48.644;9.456;2024-03-23T15:02:31;7.70;99.90
18384;DHT22;9318;48.644;9.456;2024-03-23T15:04:58;7.80;99.90
18384;DHT22;9318;48.644;9.456;2024-03-23T15:07:25;7.90;99.90
18384;DHT22;9318;48.644;9.456;2024-03-23T15:09:51;7.90;99.90
18384;DHT22;9318;48.644;9.456;2024-03-23T15:12:19;7.90;99.90
18384;DHT22;9318;48.644;9.456;2024-03-23T15:14:45;7.90;99.90
18384;DHT22;9318;48.644;9.456;2024-03-23T15:17:13;7.80;99.90
18384;DHT22;9318;48.644;9.456;2024-03-23T15:19:38;7.80;99.90
18384;DHT22;9318;48.644;9.456;2024-03-23T15:22:06;7.80;99.90
18384;DHT22;9318;48.644;9.456;2024-03-23T15:24:32;7.80;99.90
18384;DHT22;9318;48.644;9.456;2024-03-23T15:27:00;7.90;99.90
18384;DHT22;9318;48.644;9.456;2024-03-23T15:29:26;8.10;99.90
18384;DHT22;9318;48.644;9.456;2024-03-23T15:31:53;8.40;99.90
18384;DHT22;9318;48.644;9.456;2024-03-23T15:34:19;8.50;99.90
18384;DHT22;9318;48.644;9.456;2024-03-23T15:36:47;8.40;99.90
18384;DHT22;9318;48.644;9.456;2024-03-23T15:39:14;8.40;99.90
18384;DHT22;9318;48.644;9.456;2024-03-23T15:41:44;8.30;99.90
18384;DHT22;9318;48.644;9.456;2024-03-23T15:44:09;8.20;99.90
18384;DHT22;9318;48.644;9.456;2024-03-23T15:46:36;8.10;99.90
18384;DHT22;9318;48.644;9.456;2024-03-23T15:49:02;8.10;99.90
18384;DHT22;9318;48.644;9.456;2024-03-23T15:51:29;8.00;99.90
18384;DHT22;9318;48.644;9.456;2024-03-23T15:53:58;8.00;99.90
18384;DHT22;9318;48.644;9.456;2024-03-23T15:56:26;7.90;99.90
18384;DHT22;9318;48.644;9.456;2024-03-23T15:58:52;7.80;99.90
18384;DHT22;9318;48.644;9.456;2024-03-23T16:01:19;7.70;99.90
18384;DHT22;9318;48.644;9.456;2024-03-23T16:03:45;7.70;99.90
18384;DHT22;9318;48.644;9.456;2024-03-23T16:06:11;7.70;99.90
18384;DHT22;9318;48.644;9.456;2024-03-23T16:08:37;7.70;99.90
18384;DHT22;9318;48.644;9.456;2024-03-23T16:11:05;7.80;99.90
18384;DHT22;9318;48.644;9.456;2024-03-23T16:13:33;7.90;99.90
18384;DHT22;9318;48.644;9.456;2024-03-23T16:16:01;8.00;99.90
18384;DHT22;9318;48.644;9.456;2024-03-23T16:18:29;7.90;99.90
18384;DHT22;9318;48.644;9.456;2024-03-23T16:20:57;7.90;99.90
18384;DHT22;9318;48.644;9.456;2024-03-23T16:23:23;7.90;99.90
18384;DHT22;9318;48.644;9.456;2024-03-23T16:25:51;7.80;99.90
18384;DHT22;9318;48.644;9.456;2024-03-23T16:28:23;7.80;99.90
18384;DHT22;9318;48.644;9.456;2024-03-23T16:30:55;7.80;99.90
18384;DHT22;9318;48.644;9.456;2024-03-23T16:33:21;7.80;99.90
18384;DHT22;9318;48.644;9.456;2024-03-23T16:35:58;7.90;99.90
18384;DHT22;9318;48.644;9.456;2024-03-23T16:38:24;7.90;99.90
18384;DHT22;9318;48.644;9.456;2024-03-23T16:40:57;7.90;99.90
18384;DHT22;9318;48.644;9.456;2024-03-23T16:43:23;7.90;99.90
18384;DHT22;9318;48.644;9.456;2024-03-23T16:45:56;7.90;99.90
18384;DHT22;9318;48.644;9.456;2024-03-23T16:48:22;7.80;99.90